sensor_id;sensor_type;location;lat;lon;timestamp;P1;durP1;ratioP1;P2;durP2;ratioP2
6053;SDS011;3055;50.886;14.814;2024-01-30T00:00:27;18.30;;;10.37;;
6053;SDS011;3055;50.886;14.814;2024-01-30T00:02:54;12.60;;;9.70;;
6053;SDS011;3055;50.886;14.814;2024-01-30T00:05:21;17.90;;;9.77;;
6053;SDS011;3055;50.886;14.814;2024-01-30T00:07:48;15.70;;;10.27;;
6053;SDS011;3055;50.886;14.814;2024-01-30T00:10:18;15.33;;;10.10;;
6053;SDS011;3055;50.886;14.814;2024-01-30T00:12:45;15.50;;;9.73;;
6053;SDS011;3055;50.886;14.814;2024-01-30T00:15:12;15.23;;;10.00;;
6053;SDS011;3055;50.886;14.814;2024-01-30T00:17:40;13.27;;;9.20;;
6053;SDS011;3055;50.886;14.814;2024-01-30T00:20:07;13.53;;;9.80;;
6053;SDS011;3055;50.886;14.814;2024-01-30T00:22:35;12.67;;;9.50;;
6053;SDS011;3055;50.886;14.814;2024-01-30T00:25:02;15.37;;;9.60;;
6053;SDS011;3055;50.886;14.814;2024-01-30T00:27:31;14.90;;;10.03;;
6053;SDS011;3055;50.886;14.814;2024-01-30T00:29:58;13.80;;;9.93;;
6053;SDS011;3055;50.886;14.814;2024-01-30T00:32:25;12.37;;;9.43;;
6053;SDS011;3055;50.886;14.814;2024-01-30T00:34:52;13.93;;;9.80;;
6053;SDS011;3055;50.886;14.814;2024-01-30T00:37:19;12.07;;;9.43;;
6053;SDS011;3055;50.886;14.814;2024-01-30T00:39:46;16.67;;;9.77;;
6053;SDS011;3055;50.886;14.814;2024-01-30T00:42:13;13.67;;;9.90;;
6053;SDS011;3055;50.886;14.814;2024-01-30T00:44:41;14.37;;;8.97;;
6053;SDS011;3055;50.886;14.814;2024-01-30T00:47:08;11.00;;;8.93;;
6053;SDS011;3055;50.886;14.814;2024-01-30T00:49:35;15.27;;;9.27;;
6053;SDS011;3055;50.886;14.814;2024-01-30T00:52:03;13.40;;;9.53;;
6053;SDS011;3055;50.886;14.814;2024-01-30T00:54:30;13.23;;;9.70;;
6053;SDS011;3055;50.886;14.814;2024-01-30T00:56:57;14.20;;;9.27;;
6053;SDS011;3055;50.886;14.814;2024-01-30T00:59:24;13.93;;;9.30;;
6053;SDS011;3055;50.886;14.814;2024-01-30T01:01:53;17.30;;;9.83;;
6053;SDS011;3055;50.886;14.814;2024-01-30T01:04:20;13.63;;;9.47;;
6053;SDS011;3055;50.886;14.814;2024-01-30T01:06:47;15.07;;;9.60;;
6053;SDS011;3055;50.886;14.814;2024-01-30T01:09:14;15.23;;;9.90;;
6053;SDS011;3055;50.886;14.814;2024-01-30T01:11:41;11.07;;;9.10;;
6053;SDS011;3055;50.886;14.814;2024-01-30T01:14:08;11.50;;;8.50;;
6053;SDS011;3055;50.886;14.814;2024-01-30T01:16:38;16.77;;;9.00;;
6053;SDS011;3055;50.886;14.814;2024-01-30T01:19:07;12.03;;;9.83;;
6053;SDS011;3055;50.886;14.814;2024-01-30T01:21:34;14.17;;;9.33;;
6053;SDS011;3055;50.886;14.814;2024-01-30T01:24:01;15.60;;;10.20;;
6053;SDS011;3055;50.886;14.814;2024-01-30T01:26:29;14.13;;;9.47;;
6053;SDS011;3055;50.886;14.814;2024-01-30T01:28:56;15.07;;;10.77;;
6053;SDS011;3055;50.886;14.814;2024-01-30T01:31:23;14.57;;;9.37;;
6053;SDS011;3055;50.886;14.814;2024-01-30T01:33:50;14.17;;;9.83;;
6053;SDS011;3055;50.886;14.814;2024-01-30T01:36:18;15.53;;;9.90;;
6053;SDS011;3055;50.886;14.814;2024-01-30T01:38:45;14.10;;;9.27;;
6053;SDS011;3055;50.886;14.814;2024-01-30T01:41:12;15.30;;;9.80;;
6053;SDS011;3055;50.886;14.814;2024-01-30T01:43:40;11.60;;;9.33;;
6053;SDS011;3055;50.886;14.814;2024-01-30T01:46:07;12.03;;;8.77;;
6053;SDS011;3055;50.886;14.814;2024-01-30T01:48:35;15.17;;;10.17;;
6053;SDS011;3055;50.886;14.814;2024-01-30T01:51:04;11.90;;;9.20;;
6053;SDS011;3055;50.886;14.814;2024-01-30T01:53:34;14.60;;;9.20;;
6053;SDS011;3055;50.886;14.814;2024-01-30T01:56:01;14.33;;;10.03;;
6053;SDS011;3055;50.886;14.814;2024-01-30T01:58:28;13.27;;;9.57;;
6053;SDS011;3055;50.886;14.814;2024-01-30T02:00:56;15.53;;;9.93;;
6053;SDS011;3055;50.886;14.814;2024-01-30T02:03:24;13.00;;;9.90;;
6053;SDS011;3055;50.886;14.814;2024-01-30T02:05:51;15.17;;;10.50;;
6053;SDS011;3055;50.886;14.814;2024-01-30T02:08:18;11.73;;;9.43;;
6053;SDS011;3055;50.886;14.814;2024-01-30T02:10:47;17.27;;;10.30;;
6053;SDS011;3055;50.886;14.814;2024-01-30T02:13:14;14.87;;;10.07;;
6053;SDS011;3055;50.886;14.814;2024-01-30T02:15:41;12.70;;;10.20;;
6053;SDS011;3055;50.886;14.814;2024-01-30T02:18:08;14.60;;;9.97;;
6053;SDS011;3055;50.886;14.814;2024-01-30T02:20:35;15.20;;;10.13;;
6053;SDS011;3055;50.886;14.814;2024-01-30T02:23:06;12.37;;;9.80;;
6053;SDS011;3055;50.886;14.814;2024-01-30T02:25:38;14.30;;;10.47;;
6053;SDS011;3055;50.886;14.814;2024-01-30T02:28:09;14.27;;;10.07;;
6053;SDS011;3055;50.886;14.814;2024-01-30T02:30:37;14.70;;;10.63;;
6053;SDS011;3055;50.886;14.814;2024-01-30T02:33:05;12.73;;;9.90;;
6053;SDS011;3055;50.886;14.814;2024-01-30T02:35:32;16.33;;;10.30;;
6053;SDS011;3055;50.886;14.814;2024-01-30T02:38:00;11.93;;;10.53;;
6053;SDS011;3055;50.886;14.814;2024-01-30T02:40:28;13.27;;;10.20;;
6053;SDS011;3055;50.886;14.814;2024-01-30T02:42:55;15.67;;;10.10;;
6053;SDS011;3055;50.886;14.814;2024-01-30T02:45:23;14.23;;;10.83;;
6053;SDS011;3055;50.886;14.814;2024-01-30T02:47:50;15.80;;;11.00;;
6053;SDS011;3055;50.886;14.814;2024-01-30T02:50:17;16.13;;;10.63;;
6053;SDS011;3055;50.886;14.814;2024-01-30T02:52:44;16.07;;;10.13;;
6053;SDS011;3055;50.886;14.814;2024-01-30T02:55:11;13.83;;;10.10;;
6053;SDS011;3055;50.886;14.814;2024-01-30T02:57:40;13.67;;;10.20;;
6053;SDS011;3055;50.886;14.814;2024-01-30T03:00:07;12.00;;;10.70;;
6053;SDS011;3055;50.886;14.814;2024-01-30T03:02:35;15.23;;;11.93;;
6053;SDS011;3055;50.886;14.814;2024-01-30T03:05:03;17.27;;;11.23;;
6053;SDS011;3055;50.886;14.814;2024-01-30T03:07:33;11.80;;;9.97;;
6053;SDS011;3055;50.886;14.814;2024-01-30T03:10:00;16.97;;;10.90;;
6053;SDS011;3055;50.886;14.814;2024-01-30T03:12:27;16.53;;;10.50;;
6053;SDS011;3055;50.886;14.814;2024-01-30T03:14:56;16.17;;;11.20;;
6053;SDS011;3055;50.886;14.814;2024-01-30T03:17:23;16.20;;;10.87;;
6053;SDS011;3055;50.886;14.814;2024-01-30T03:19:50;15.80;;;9.70;;
6053;SDS011;3055;50.886;14.814;2024-01-30T03:22:17;16.87;;;10.80;;
6053;SDS011;3055;50.886;14.814;2024-01-30T03:24:44;12.57;;;10.27;;
6053;SDS011;3055;50.886;14.814;2024-01-30T03:27:11;12.93;;;9.43;;
6053;SDS011;3055;50.886;14.814;2024-01-30T03:29:38;17.07;;;10.43;;
6053;SDS011;3055;50.886;14.814;2024-01-30T03:32:07;13.93;;;9.97;;
6053;SDS011;3055;50.886;14.814;2024-01-30T03:34:34;16.37;;;9.67;;
6053;SDS011;3055;50.886;14.814;2024-01-30T03:37:01;13.97;;;9.97;;
6053;SDS011;3055;50.886;14.814;2024-01-30T03:39:28;15.60;;;9.93;;
6053;SDS011;3055;50.886;14.814;2024-01-30T03:41:56;12.57;;;9.00;;
6053;SDS011;3055;50.886;14.814;2024-01-30T03:44:23;13.50;;;9.30;;
6053;SDS011;3055;50.886;14.814;2024-01-30T03:46:50;11.77;;;9.37;;
6053;SDS011;3055;50.886;14.814;2024-01-30T03:49:19;14.37;;;9.70;;
6053;SDS011;3055;50.886;14.814;2024-01-30T03:51:46;16.33;;;10.37;;
6053;SDS011;3055;50.886;14.814;2024-01-30T03:54:13;13.27;;;9.80;;
6053;SDS011;3055;50.886;14.814;2024-01-30T03:56:41;14.27;;;9.67;;
6053;SDS011;3055;50.886;14.814;2024-01-30T03:59:08;14.43;;;11.20;;
6053;SDS011;3055;50.886;14.814;2024-01-30T04:01:35;12.97;;;10.50;;
6053;SDS011;3055;50.886;14.814;2024-01-30T04:04:02;14.03;;;9.87;;
6053;SDS011;3055;50.886;14.814;2024-01-30T04:06:30;13.33;;;9.67;;
6053;SDS011;3055;50.886;14.814;2024-01-30T04:08:59;14.33;;;10.23;;
6053;SDS011;3055;50.886;14.814;2024-01-30T04:11:26;12.23;;;9.53;;
6053;SDS011;3055;50.886;14.814;2024-01-30T04:13:53;12.27;;;9.97;;
6053;SDS011;3055;50.886;14.814;2024-01-30T04:16:20;14.67;;;9.77;;
6053;SDS011;3055;50.886;14.814;2024-01-30T04:18:48;13.60;;;9.57;;
6053;SDS011;3055;50.886;14.814;2024-01-30T04:21:15;14.47;;;9.47;;
6053;SDS011;3055;50.886;14.814;2024-01-30T04:23:43;14.53;;;9.90;;
6053;SDS011;3055;50.886;14.814;2024-01-30T04:26:10;15.40;;;10.37;;
6053;SDS011;3055;50.886;14.814;2024-01-30T04:28:37;15.07;;;9.57;;
6053;SDS011;3055;50.886;14.814;2024-01-30T04:31:04;14.53;;;9.60;;
6053;SDS011;3055;50.886;14.814;2024-01-30T04:33:31;14.20;;;9.07;;
6053;SDS011;3055;50.886;14.814;2024-01-30T04:35:59;16.23;;;10.73;;
6053;SDS011;3055;50.886;14.814;2024-01-30T04:38:26;13.67;;;9.77;;
6053;SDS011;3055;50.886;14.814;2024-01-30T04:40:54;14.97;;;9.33;;
6053;SDS011;3055;50.886;14.814;2024-01-30T04:43:22;14.57;;;9.87;;
6053;SDS011;3055;50.886;14.814;2024-01-30T04:45:49;14.43;;;10.30;;
6053;SDS011;3055;50.886;14.814;2024-01-30T04:48:16;12.97;;;10.07;;
6053;SDS011;3055;50.886;14.814;2024-01-30T04:50:43;17.07;;;10.97;;
6053;SDS011;3055;50.886;14.814;2024-01-30T04:53:10;13.57;;;10.37;;
6053;SDS011;3055;50.886;14.814;2024-01-30T04:55:37;15.23;;;10.40;;
6053;SDS011;3055;50.886;14.814;2024-01-30T04:58:05;14.63;;;10.13;;
6053;SDS011;3055;50.886;14.814;2024-01-30T05:00:33;15.57;;;9.97;;
6053;SDS011;3055;50.886;14.814;2024-01-30T05:03:00;16.90;;;10.20;;
6053;SDS011;3055;50.886;14.814;2024-01-30T05:05:27;12.07;;;9.77;;
6053;SDS011;3055;50.886;14.814;2024-01-30T05:07:54;14.23;;;10.47;;
6053;SDS011;3055;50.886;14.814;2024-01-30T05:10:21;14.87;;;10.50;;
6053;SDS011;3055;50.886;14.814;2024-01-30T05:12:48;16.97;;;10.27;;
6053;SDS011;3055;50.886;14.814;2024-01-30T05:15:16;15.80;;;10.53;;
6053;SDS011;3055;50.886;14.814;2024-01-30T05:17:43;12.87;;;9.57;;
6053;SDS011;3055;50.886;14.814;2024-01-30T05:20:11;18.27;;;11.23;;
6053;SDS011;3055;50.886;14.814;2024-01-30T05:22:38;14.10;;;10.30;;
6053;SDS011;3055;50.886;14.814;2024-01-30T05:25:10;18.67;;;10.63;;
6053;SDS011;3055;50.886;14.814;2024-01-30T05:27:37;17.43;;;11.10;;
6053;SDS011;3055;50.886;14.814;2024-01-30T05:30:05;16.73;;;10.97;;
6053;SDS011;3055;50.886;14.814;2024-01-30T05:32:34;14.63;;;10.67;;
6053;SDS011;3055;50.886;14.814;2024-01-30T05:35:01;18.57;;;10.97;;
6053;SDS011;3055;50.886;14.814;2024-01-30T05:37:29;18.53;;;10.73;;
6053;SDS011;3055;50.886;14.814;2024-01-30T05:39:56;13.07;;;10.87;;
6053;SDS011;3055;50.886;14.814;2024-01-30T05:42:23;13.37;;;11.17;;
6053;SDS011;3055;50.886;14.814;2024-01-30T05:44:50;16.93;;;11.40;;
6053;SDS011;3055;50.886;14.814;2024-01-30T05:47:17;17.93;;;11.17;;
6053;SDS011;3055;50.886;14.814;2024-01-30T05:49:45;14.13;;;11.37;;
6053;SDS011;3055;50.886;14.814;2024-01-30T05:52:12;14.13;;;10.83;;
6053;SDS011;3055;50.886;14.814;2024-01-30T05:54:40;18.20;;;11.83;;
6053;SDS011;3055;50.886;14.814;2024-01-30T05:57:07;15.50;;;11.00;;
6053;SDS011;3055;50.886;14.814;2024-01-30T05:59:35;15.03;;;11.00;;
6053;SDS011;3055;50.886;14.814;2024-01-30T06:02:02;17.17;;;9.87;;
6053;SDS011;3055;50.886;14.814;2024-01-30T06:04:29;15.37;;;11.37;;
6053;SDS011;3055;50.886;14.814;2024-01-30T06:06:58;15.67;;;11.13;;
6053;SDS011;3055;50.886;14.814;2024-01-30T06:09:27;17.63;;;10.27;;
6053;SDS011;3055;50.886;14.814;2024-01-30T06:11:54;18.47;;;11.10;;
6053;SDS011;3055;50.886;14.814;2024-01-30T06:14:21;16.00;;;10.80;;
6053;SDS011;3055;50.886;14.814;2024-01-30T06:16:48;18.57;;;11.13;;
6053;SDS011;3055;50.886;14.814;2024-01-30T06:19:16;16.47;;;10.47;;
6053;SDS011;3055;50.886;14.814;2024-01-30T06:21:43;17.13;;;11.23;;
6053;SDS011;3055;50.886;14.814;2024-01-30T06:24:12;17.27;;;10.70;;
6053;SDS011;3055;50.886;14.814;2024-01-30T06:26:39;13.63;;;10.43;;
6053;SDS011;3055;50.886;14.814;2024-01-30T06:29:06;20.90;;;11.30;;
6053;SDS011;3055;50.886;14.814;2024-01-30T06:31:39;17.83;;;10.97;;
6053;SDS011;3055;50.886;14.814;2024-01-30T06:34:06;13.30;;;10.87;;
6053;SDS011;3055;50.886;14.814;2024-01-30T06:36:33;13.30;;;10.00;;
6053;SDS011;3055;50.886;14.814;2024-01-30T06:39:01;14.77;;;11.33;;
6053;SDS011;3055;50.886;14.814;2024-01-30T06:41:30;15.93;;;11.57;;
6053;SDS011;3055;50.886;14.814;2024-01-30T06:43:57;13.43;;;10.73;;
6053;SDS011;3055;50.886;14.814;2024-01-30T06:46:25;14.53;;;10.53;;
6053;SDS011;3055;50.886;14.814;2024-01-30T06:48:52;18.67;;;12.03;;
6053;SDS011;3055;50.886;14.814;2024-01-30T06:51:19;15.63;;;11.10;;
6053;SDS011;3055;50.886;14.814;2024-01-30T06:53:46;16.13;;;11.00;;
6053;SDS011;3055;50.886;14.814;2024-01-30T06:56:13;14.30;;;10.33;;
6053;SDS011;3055;50.886;14.814;2024-01-30T06:58:43;18.27;;;11.20;;
6053;SDS011;3055;50.886;14.814;2024-01-30T07:01:10;13.40;;;10.87;;
6053;SDS011;3055;50.886;14.814;2024-01-30T07:03:37;14.23;;;11.00;;
6053;SDS011;3055;50.886;14.814;2024-01-30T07:06:04;17.43;;;11.77;;
6053;SDS011;3055;50.886;14.814;2024-01-30T07:08:31;19.83;;;10.67;;
6053;SDS011;3055;50.886;14.814;2024-01-30T07:10:58;12.93;;;10.80;;
6053;SDS011;3055;50.886;14.814;2024-01-30T07:13:26;15.13;;;10.67;;
6053;SDS011;3055;50.886;14.814;2024-01-30T07:15:55;18.10;;;10.90;;
6053;SDS011;3055;50.886;14.814;2024-01-30T07:18:22;15.40;;;10.40;;
6053;SDS011;3055;50.886;14.814;2024-01-30T07:20:49;17.43;;;11.27;;
6053;SDS011;3055;50.886;14.814;2024-01-30T07:23:16;13.80;;;10.97;;
6053;SDS011;3055;50.886;14.814;2024-01-30T07:25:43;15.90;;;10.57;;
6053;SDS011;3055;50.886;14.814;2024-01-30T07:28:11;15.77;;;10.40;;
6053;SDS011;3055;50.886;14.814;2024-01-30T07:30:38;15.40;;;11.13;;
6053;SDS011;3055;50.886;14.814;2024-01-30T07:33:07;17.17;;;9.63;;
6053;SDS011;3055;50.886;14.814;2024-01-30T07:35:34;17.07;;;10.60;;
6053;SDS011;3055;50.886;14.814;2024-01-30T07:38:03;13.40;;;10.67;;
6053;SDS011;3055;50.886;14.814;2024-01-30T07:40:30;15.30;;;10.70;;
6053;SDS011;3055;50.886;14.814;2024-01-30T07:42:58;16.23;;;10.97;;
6053;SDS011;3055;50.886;14.814;2024-01-30T07:45:25;13.53;;;10.77;;
6053;SDS011;3055;50.886;14.814;2024-01-30T07:47:57;13.70;;;10.43;;
6053;SDS011;3055;50.886;14.814;2024-01-30T07:50:26;15.77;;;10.50;;
6053;SDS011;3055;50.886;14.814;2024-01-30T07:52:53;14.53;;;10.80;;
6053;SDS011;3055;50.886;14.814;2024-01-30T07:55:22;14.47;;;10.30;;
6053;SDS011;3055;50.886;14.814;2024-01-30T07:57:49;15.70;;;10.07;;
6053;SDS011;3055;50.886;14.814;2024-01-30T08:00:18;14.17;;;10.53;;
6053;SDS011;3055;50.886;14.814;2024-01-30T08:02:45;15.83;;;9.73;;
6053;SDS011;3055;50.886;14.814;2024-01-30T08:05:12;14.30;;;10.60;;
6053;SDS011;3055;50.886;14.814;2024-01-30T08:07:41;15.17;;;10.30;;
6053;SDS011;3055;50.886;14.814;2024-01-30T08:10:10;15.47;;;11.23;;
6053;SDS011;3055;50.886;14.814;2024-01-30T08:12:38;19.00;;;10.90;;
6053;SDS011;3055;50.886;14.814;2024-01-30T08:15:05;15.53;;;10.90;;
6053;SDS011;3055;50.886;14.814;2024-01-30T08:17:33;15.00;;;10.97;;
6053;SDS011;3055;50.886;14.814;2024-01-30T08:20:00;16.30;;;10.40;;
6053;SDS011;3055;50.886;14.814;2024-01-30T08:22:29;14.57;;;10.40;;
6053;SDS011;3055;50.886;14.814;2024-01-30T08:24:58;16.20;;;10.30;;
6053;SDS011;3055;50.886;14.814;2024-01-30T08:27:25;12.67;;;9.80;;
6053;SDS011;3055;50.886;14.814;2024-01-30T08:29:52;12.03;;;10.10;;
6053;SDS011;3055;50.886;14.814;2024-01-30T08:32:19;18.23;;;10.97;;
6053;SDS011;3055;50.886;14.814;2024-01-30T08:34:46;12.77;;;10.23;;
6053;SDS011;3055;50.886;14.814;2024-01-30T08:37:13;15.93;;;10.70;;
6053;SDS011;3055;50.886;14.814;2024-01-30T08:39:41;11.93;;;9.30;;
6053;SDS011;3055;50.886;14.814;2024-01-30T08:42:10;12.83;;;9.77;;
6053;SDS011;3055;50.886;14.814;2024-01-30T08:44:37;13.23;;;10.63;;
6053;SDS011;3055;50.886;14.814;2024-01-30T08:47:04;15.20;;;11.13;;
6053;SDS011;3055;50.886;14.814;2024-01-30T08:49:32;15.60;;;10.87;;
6053;SDS011;3055;50.886;14.814;2024-01-30T08:51:59;15.53;;;10.83;;
6053;SDS011;3055;50.886;14.814;2024-01-30T08:54:26;15.50;;;10.43;;
6053;SDS011;3055;50.886;14.814;2024-01-30T08:56:53;16.50;;;9.60;;
6053;SDS011;3055;50.886;14.814;2024-01-30T08:59:23;12.93;;;9.50;;
6053;SDS011;3055;50.886;14.814;2024-01-30T09:01:50;13.67;;;9.53;;
6053;SDS011;3055;50.886;14.814;2024-01-30T09:04:20;17.47;;;9.43;;
6053;SDS011;3055;50.886;14.814;2024-01-30T09:06:47;16.10;;;11.03;;
6053;SDS011;3055;50.886;14.814;2024-01-30T09:09:15;13.07;;;10.23;;
6053;SDS011;3055;50.886;14.814;2024-01-30T09:11:42;15.60;;;10.40;;
6053;SDS011;3055;50.886;14.814;2024-01-30T09:14:09;14.50;;;10.37;;
6053;SDS011;3055;50.886;14.814;2024-01-30T09:16:38;15.67;;;10.27;;
6053;SDS011;3055;50.886;14.814;2024-01-30T09:19:05;14.30;;;9.63;;
6053;SDS011;3055;50.886;14.814;2024-01-30T09:21:32;12.43;;;10.00;;
6053;SDS011;3055;50.886;14.814;2024-01-30T09:24:01;15.80;;;9.93;;
6053;SDS011;3055;50.886;14.814;2024-01-30T09:26:29;12.13;;;9.47;;
6053;SDS011;3055;50.886;14.814;2024-01-30T09:28:56;12.03;;;9.37;;
6053;SDS011;3055;50.886;14.814;2024-01-30T09:31:23;13.03;;;9.50;;
6053;SDS011;3055;50.886;14.814;2024-01-30T09:33:52;13.93;;;9.57;;
6053;SDS011;3055;50.886;14.814;2024-01-30T09:36:20;15.50;;;10.37;;
6053;SDS011;3055;50.886;14.814;2024-01-30T09:38:47;14.27;;;9.77;;
6053;SDS011;3055;50.886;14.814;2024-01-30T09:41:14;13.97;;;10.17;;
6053;SDS011;3055;50.886;14.814;2024-01-30T09:43:45;12.33;;;10.00;;
6053;SDS011;3055;50.886;14.814;2024-01-30T09:46:14;13.47;;;9.33;;
6053;SDS011;3055;50.886;14.814;2024-01-30T09:48:44;12.60;;;9.60;;
6053;SDS011;3055;50.886;14.814;2024-01-30T09:51:15;13.13;;;9.07;;
6053;SDS011;3055;50.886;14.814;2024-01-30T09:53:43;15.30;;;10.10;;
6053;SDS011;3055;50.886;14.814;2024-01-30T09:56:10;13.07;;;9.60;;
6053;SDS011;3055;50.886;14.814;2024-01-30T09:58:38;14.00;;;9.33;;
6053;SDS011;3055;50.886;14.814;2024-01-30T10:01:06;14.07;;;10.17;;
6053;SDS011;3055;50.886;14.814;2024-01-30T10:03:33;14.17;;;10.00;;
6053;SDS011;3055;50.886;14.814;2024-01-30T10:06:00;19.20;;;10.60;;
6053;SDS011;3055;50.886;14.814;2024-01-30T10:08:29;12.80;;;9.57;;
6053;SDS011;3055;50.886;14.814;2024-01-30T10:10:56;15.47;;;10.47;;
6053;SDS011;3055;50.886;14.814;2024-01-30T10:13:23;15.27;;;10.60;;
6053;SDS011;3055;50.886;14.814;2024-01-30T10:15:52;14.43;;;9.37;;
6053;SDS011;3055;50.886;14.814;2024-01-30T10:18:20;14.03;;;9.83;;
6053;SDS011;3055;50.886;14.814;2024-01-30T10:20:49;10.97;;;9.53;;
6053;SDS011;3055;50.886;14.814;2024-01-30T10:23:16;12.30;;;9.40;;
6053;SDS011;3055;50.886;14.814;2024-01-30T10:25:45;14.57;;;9.80;;
6053;SDS011;3055;50.886;14.814;2024-01-30T10:28:13;12.93;;;10.20;;
6053;SDS011;3055;50.886;14.814;2024-01-30T10:30:40;13.63;;;10.17;;
6053;SDS011;3055;50.886;14.814;2024-01-30T10:33:07;14.73;;;9.97;;
6053;SDS011;3055;50.886;14.814;2024-01-30T10:35:34;13.33;;;9.47;;
6053;SDS011;3055;50.886;14.814;2024-01-30T10:38:01;13.10;;;9.03;;
6053;SDS011;3055;50.886;14.814;2024-01-30T10:40:29;13.37;;;9.40;;
6053;SDS011;3055;50.886;14.814;2024-01-30T10:43:00;13.30;;;10.37;;
6053;SDS011;3055;50.886;14.814;2024-01-30T10:45:28;12.93;;;9.60;;
6053;SDS011;3055;50.886;14.814;2024-01-30T10:47:56;12.83;;;9.47;;
6053;SDS011;3055;50.886;14.814;2024-01-30T10:50:25;11.70;;;8.70;;
6053;SDS011;3055;50.886;14.814;2024-01-30T10:52:54;15.50;;;12.53;;
6053;SDS011;3055;50.886;14.814;2024-01-30T10:55:22;13.40;;;9.40;;
6053;SDS011;3055;50.886;14.814;2024-01-30T10:57:49;14.17;;;9.67;;
6053;SDS011;3055;50.886;14.814;2024-01-30T11:00:18;12.20;;;9.43;;
6053;SDS011;3055;50.886;14.814;2024-01-30T11:02:48;13.20;;;9.20;;
6053;SDS011;3055;50.886;14.814;2024-01-30T11:05:23;15.20;;;9.53;;
6053;SDS011;3055;50.886;14.814;2024-01-30T11:07:51;14.37;;;9.63;;
6053;SDS011;3055;50.886;14.814;2024-01-30T11:10:18;12.77;;;9.40;;
6053;SDS011;3055;50.886;14.814;2024-01-30T11:12:45;12.40;;;9.17;;
6053;SDS011;3055;50.886;14.814;2024-01-30T11:15:13;13.53;;;10.13;;
6053;SDS011;3055;50.886;14.814;2024-01-30T11:17:50;13.47;;;9.97;;
6053;SDS011;3055;50.886;14.814;2024-01-30T11:20:19;13.77;;;10.07;;
6053;SDS011;3055;50.886;14.814;2024-01-30T11:22:47;15.60;;;9.87;;
6053;SDS011;3055;50.886;14.814;2024-01-30T11:25:18;12.73;;;9.53;;
6053;SDS011;3055;50.886;14.814;2024-01-30T11:27:46;13.73;;;10.53;;
6053;SDS011;3055;50.886;14.814;2024-01-30T11:30:26;16.67;;;10.27;;
6053;SDS011;3055;50.886;14.814;2024-01-30T11:33:02;13.93;;;10.60;;
6053;SDS011;3055;50.886;14.814;2024-01-30T11:35:30;12.37;;;10.27;;
6053;SDS011;3055;50.886;14.814;2024-01-30T11:37:58;14.27;;;10.40;;
6053;SDS011;3055;50.886;14.814;2024-01-30T11:40:26;14.83;;;9.60;;
6053;SDS011;3055;50.886;14.814;2024-01-30T11:42:54;11.87;;;9.93;;
6053;SDS011;3055;50.886;14.814;2024-01-30T11:45:22;15.07;;;10.30;;
6053;SDS011;3055;50.886;14.814;2024-01-30T11:47:49;15.07;;;10.67;;
6053;SDS011;3055;50.886;14.814;2024-01-30T11:50:18;14.20;;;10.30;;
6053;SDS011;3055;50.886;14.814;2024-01-30T11:52:45;17.30;;;10.43;;
6053;SDS011;3055;50.886;14.814;2024-01-30T11:55:12;15.43;;;10.07;;
6053;SDS011;3055;50.886;14.814;2024-01-30T11:57:40;14.03;;;10.40;;
6053;SDS011;3055;50.886;14.814;2024-01-30T12:00:13;13.57;;;10.70;;
6053;SDS011;3055;50.886;14.814;2024-01-30T12:02:42;12.73;;;10.80;;
6053;SDS011;3055;50.886;14.814;2024-01-30T12:05:09;14.93;;;11.00;;
6053;SDS011;3055;50.886;14.814;2024-01-30T12:07:37;15.93;;;10.80;;
6053;SDS011;3055;50.886;14.814;2024-01-30T12:10:05;14.97;;;11.50;;
6053;SDS011;3055;50.886;14.814;2024-01-30T12:12:33;18.77;;;11.07;;
6053;SDS011;3055;50.886;14.814;2024-01-30T12:15:00;15.57;;;10.90;;
6053;SDS011;3055;50.886;14.814;2024-01-30T12:17:28;15.80;;;11.63;;
6053;SDS011;3055;50.886;14.814;2024-01-30T12:20:03;14.07;;;11.43;;
6053;SDS011;3055;50.886;14.814;2024-01-30T12:22:32;15.90;;;11.87;;
6053;SDS011;3055;50.886;14.814;2024-01-30T12:25:03;13.83;;;11.07;;
6053;SDS011;3055;50.886;14.814;2024-01-30T12:27:31;17.43;;;11.90;;
6053;SDS011;3055;50.886;14.814;2024-01-30T12:29:58;18.23;;;11.63;;
6053;SDS011;3055;50.886;14.814;2024-01-30T12:32:25;14.27;;;11.17;;
6053;SDS011;3055;50.886;14.814;2024-01-30T12:34:54;18.67;;;11.90;;
6053;SDS011;3055;50.886;14.814;2024-01-30T12:37:22;17.20;;;11.37;;
6053;SDS011;3055;50.886;14.814;2024-01-30T12:39:50;15.73;;;11.67;;
6053;SDS011;3055;50.886;14.814;2024-01-30T12:42:20;16.17;;;12.73;;
6053;SDS011;3055;50.886;14.814;2024-01-30T12:44:47;19.37;;;12.53;;
6053;SDS011;3055;50.886;14.814;2024-01-30T12:47:15;21.13;;;14.50;;
6053;SDS011;3055;50.886;14.814;2024-01-30T12:49:42;16.90;;;12.57;;
6053;SDS011;3055;50.886;14.814;2024-01-30T12:52:10;14.93;;;12.00;;
6053;SDS011;3055;50.886;14.814;2024-01-30T12:54:37;18.90;;;12.63;;
6053;SDS011;3055;50.886;14.814;2024-01-30T12:57:05;15.60;;;12.23;;
6053;SDS011;3055;50.886;14.814;2024-01-30T12:59:33;19.57;;;12.03;;
6053;SDS011;3055;50.886;14.814;2024-01-30T13:02:00;18.27;;;12.50;;
6053;SDS011;3055;50.886;14.814;2024-01-30T13:04:28;18.73;;;12.27;;
6053;SDS011;3055;50.886;14.814;2024-01-30T13:06:58;16.63;;;11.40;;
6053;SDS011;3055;50.886;14.814;2024-01-30T13:09:26;15.27;;;12.17;;
6053;SDS011;3055;50.886;14.814;2024-01-30T13:11:54;16.73;;;13.20;;
6053;SDS011;3055;50.886;14.814;2024-01-30T13:14:21;18.13;;;13.00;;
6053;SDS011;3055;50.886;14.814;2024-01-30T13:16:49;17.33;;;12.13;;
6053;SDS011;3055;50.886;14.814;2024-01-30T13:19:16;19.87;;;13.10;;
6053;SDS011;3055;50.886;14.814;2024-01-30T13:21:44;17.77;;;12.63;;
6053;SDS011;3055;50.886;14.814;2024-01-30T13:24:11;16.10;;;12.23;;
6053;SDS011;3055;50.886;14.814;2024-01-30T13:26:38;18.33;;;12.73;;
6053;SDS011;3055;50.886;14.814;2024-01-30T13:29:05;15.03;;;11.47;;
6053;SDS011;3055;50.886;14.814;2024-01-30T13:31:32;17.97;;;12.47;;
6053;SDS011;3055;50.886;14.814;2024-01-30T13:34:01;20.17;;;12.93;;
6053;SDS011;3055;50.886;14.814;2024-01-30T13:36:28;16.57;;;11.63;;
6053;SDS011;3055;50.886;14.814;2024-01-30T13:38:55;17.73;;;13.40;;
6053;SDS011;3055;50.886;14.814;2024-01-30T13:41:23;17.13;;;12.33;;
6053;SDS011;3055;50.886;14.814;2024-01-30T13:43:50;20.10;;;13.60;;
6053;SDS011;3055;50.886;14.814;2024-01-30T13:46:17;17.27;;;12.73;;
6053;SDS011;3055;50.886;14.814;2024-01-30T13:48:44;16.83;;;12.47;;
6053;SDS011;3055;50.886;14.814;2024-01-30T13:51:12;20.00;;;12.20;;
6053;SDS011;3055;50.886;14.814;2024-01-30T13:53:42;19.50;;;13.87;;
6053;SDS011;3055;50.886;14.814;2024-01-30T13:56:09;16.50;;;12.03;;
6053;SDS011;3055;50.886;14.814;2024-01-30T13:58:36;18.03;;;12.53;;
6053;SDS011;3055;50.886;14.814;2024-01-30T14:01:03;18.57;;;13.17;;
6053;SDS011;3055;50.886;14.814;2024-01-30T14:03:30;20.83;;;13.70;;
6053;SDS011;3055;50.886;14.814;2024-01-30T14:05:57;23.03;;;13.70;;
6053;SDS011;3055;50.886;14.814;2024-01-30T14:08:26;20.10;;;14.37;;
6053;SDS011;3055;50.886;14.814;2024-01-30T14:10:54;17.10;;;13.43;;
6053;SDS011;3055;50.886;14.814;2024-01-30T14:13:21;21.90;;;13.77;;
6053;SDS011;3055;50.886;14.814;2024-01-30T14:15:50;21.03;;;15.07;;
6053;SDS011;3055;50.886;14.814;2024-01-30T14:18:17;21.77;;;14.30;;
6053;SDS011;3055;50.886;14.814;2024-01-30T14:20:44;18.23;;;13.80;;
6053;SDS011;3055;50.886;14.814;2024-01-30T14:23:11;20.00;;;13.77;;
6053;SDS011;3055;50.886;14.814;2024-01-30T14:25:40;22.50;;;14.77;;
6053;SDS011;3055;50.886;14.814;2024-01-30T14:28:07;22.33;;;14.60;;
6053;SDS011;3055;50.886;14.814;2024-01-30T14:30:34;23.93;;;16.20;;
6053;SDS011;3055;50.886;14.814;2024-01-30T14:33:02;21.63;;;15.90;;
6053;SDS011;3055;50.886;14.814;2024-01-30T14:35:29;25.10;;;16.00;;
6053;SDS011;3055;50.886;14.814;2024-01-30T14:37:56;25.33;;;17.37;;
6053;SDS011;3055;50.886;14.814;2024-01-30T14:40:23;27.53;;;18.57;;